Time;durP1;ratioP1;P1;durP2;ratioP2;P2;SDS_P1;SDS_P2;PMS_P1;PMS_P2;Temp;Humidity;BMP_temperature;BMP_pressure;BME280_temperature;BME280_humidity;BME280_pressure;Samples;Min_cycle;Max_cycle;Signal;HPM_P1;HPM_P2
2023/08/03 00:01:40;;;;;;;1.90;0.40;;;16.10;99.90;;;;;;5016148;28;20534;-90
2023/08/03 00:04:07;;;;;;;0.50;0.50;;;16.20;99.90;;;;;;5015637;28;20468;-89
2023/08/03 00:06:34;;;;;;;5.50;1.33;;;16.20;99.90;;;;;;5015871;28;20471;-89
2023/08/03 00:09:00;;;;;;;1.47;0.63;;;16.20;99.90;;;;;;5016118;28;20440;-90
2023/08/03 00:11:29;;;;;;;0.50;0.50;;;16.20;99.90;;;;;;5015990;28;20809;-90
2023/08/03 00:13:55;;;;;;;0.77;0.60;;;16.30;99.90;;;;;;5015567;28;20541;-89
2023/08/03 00:16:22;;;;;;;0.60;0.50;;;16.20;99.90;;;;;;5016006;28;20479;-88
2023/08/03 00:18:49;;;;;;;0.50;0.40;;;16.20;99.90;;;;;;5015647;28;20421;-89
2023/08/03 00:21:16;;;;;;;1.80;0.60;;;16.40;99.90;;;;;;5016281;28;20450;-90
2023/08/03 00:23:43;;;;;;;1.90;0.80;;;16.30;99.90;;;;;;5015560;28;20455;-89
2023/08/03 00:26:09;;;;;;;0.50;0.40;;;16.40;99.90;;;;;;5015805;28;21015;-93
2023/08/03 00:28:37;;;;;;;0.40;0.40;;;16.50;99.90;;;;;;5015555;28;20460;-87
2023/08/03 00:31:04;;;;;;;1.47;0.50;;;16.40;99.90;;;;;;5015683;28;20443;-89
2023/08/03 00:33:31;;;;;;;6.90;0.77;;;16.50;99.90;;;;;;5015904;28;20479;-88
2023/08/03 00:35:58;;;;;;;5.30;0.70;;;16.50;99.90;;;;;;5015277;28;20992;-88
2023/08/03 00:38:24;;;;;;;0.80;0.40;;;16.50;99.90;;;;;;5015537;28;20451;-91
2023/08/03 00:40:52;;;;;;;0.40;0.40;;;16.50;99.90;;;;;;5015473;28;20440;-91
2023/08/03 00:43:18;;;;;;;0.70;0.40;;;16.50;99.90;;;;;;5015185;28;20435;-91
2023/08/03 00:45:47;;;;;;;1.47;0.90;;;16.50;99.90;;;;;;5015436;28;20452;-90
2023/08/03 00:48:15;;;;;;;1.63;0.30;;;16.50;99.90;;;;;;5015197;28;20485;-90
2023/08/03 00:50:41;;;;;;;3.20;0.80;;;16.50;99.90;;;;;;5015506;28;20442;-91
2023/08/03 00:53:08;;;;;;;1.80;0.73;;;16.50;99.90;;;;;;5015304;28;20818;-90
2023/08/03 00:55:35;;;;;;;2.20;0.50;;;16.50;99.90;;;;;;5015382;28;20531;-88
2023/08/03 00:58:03;;;;;;;2.97;0.60;;;16.50;99.90;;;;;;5015062;28;20443;-91
2023/08/03 01:00:51;;;;;;;0.70;0.60;;;16.60;99.90;;;;;;5015195;28;20458;-89
2023/08/03 01:03:18;;;;;;;4.17;0.93;;;16.60;99.90;;;;;;5015117;28;20432;-90
2023/08/03 01:05:44;;;;;;;3.13;1.13;;;16.60;99.90;;;;;;5015123;28;20443;-90
2023/08/03 01:08:11;;;;;;;1.00;0.57;;;16.50;99.90;;;;;;5015038;28;20941;-90
2023/08/03 01:10:38;;;;;;;4.10;0.50;;;16.40;99.90;;;;;;5015085;28;20451;-91
2023/08/03 01:13:05;;;;;;;2.77;0.60;;;16.30;99.90;;;;;;5015003;28;20454;-90
2023/08/03 01:15:32;;;;;;;6.90;0.63;;;16.20;99.90;;;;;;5014864;28;20440;-89
2023/08/03 01:18:00;;;;;;;0.90;0.60;;;16.20;99.90;;;;;;5014935;28;20440;-90
2023/08/03 01:20:28;;;;;;;1.27;0.40;;;16.20;99.90;;;;;;5014939;28;20451;-91
2023/08/03 01:22:56;;;;;;;2.07;0.40;;;16.20;99.90;;;;;;5015413;28;20439;-91
2023/08/03 01:25:23;;;;;;;1.13;0.60;;;16.20;99.90;;;;;;5014963;28;20478;-91
2023/08/03 01:27:49;;;;;;;11.50;1.00;;;16.30;99.90;;;;;;5015082;28;20494;-88
2023/08/03 01:30:16;;;;;;;2.03;0.63;;;16.30;99.90;;;;;;5014729;28;20445;-91
2023/08/03 01:32:43;;;;;;;0.90;0.50;;;16.40;99.90;;;;;;5014481;28;20443;-91
2023/08/03 01:35:10;;;;;;;1.00;0.60;;;16.40;99.90;;;;;;5014678;28;20491;-91
2023/08/03 01:37:37;;;;;;;11.77;1.03;;;16.40;99.90;;;;;;5014884;28;20440;-91
2023/08/03 01:40:06;;;;;;;1.70;0.83;;;16.40;99.90;;;;;;5015213;28;20447;-92
2023/08/03 01:42:33;;;;;;;1.50;0.50;;;16.40;99.90;;;;;;5014473;28;20440;-91
2023/08/03 01:45:00;;;;;;;0.60;0.50;;;16.40;99.90;;;;;;5014455;28;20493;-90
2023/08/03 01:47:27;;;;;;;1.27;0.50;;;16.40;99.90;;;;;;5014699;28;20861;-91
2023/08/03 01:49:53;;;;;;;6.60;0.50;;;16.40;99.90;;;;;;5014649;28;20948;-91
2023/08/03 01:52:20;;;;;;;4.77;0.40;;;16.40;99.90;;;;;;5014518;28;20459;-90
2023/08/03 01:54:47;;;;;;;1.57;0.50;;;16.40;99.90;;;;;;5014441;28;20467;-90
2023/08/03 01:57:15;;;;;;;8.57;0.57;;;16.40;99.90;;;;;;5014133;28;20443;-89
2023/08/03 01:59:42;;;;;;;1.60;0.80;;;16.40;99.90;;;;;;5016212;28;20451;-90
2023/08/03 02:02:08;;;;;;;2.10;0.50;;;16.40;99.90;;;;;;5018177;28;20457;-91
2023/08/03 02:04:35;;;;;;;0.77;0.47;;;16.30;99.90;;;;;;5018406;28;20467;-91
2023/08/03 02:07:09;;;;;;;0.80;0.37;;;16.30;99.90;;;;;;5017869;28;20999;-91
2023/08/03 02:09:36;;;;;;;0.70;0.53;;;16.30;99.90;;;;;;5018359;28;20446;-92
2023/08/03 02:12:03;;;;;;;1.33;0.50;;;16.30;99.90;;;;;;5018232;28;20455;-89
2023/08/03 02:14:31;;;;;;;0.50;0.50;;;16.30;99.90;;;;;;5018112;28;20473;-91
2023/08/03 02:16:58;;;;;;;4.83;0.60;;;16.30;99.90;;;;;;5018122;28;20442;-90
2023/08/03 02:19:24;;;;;;;2.63;0.53;;;16.30;99.90;;;;;;5018171;28;20451;-90
2023/08/03 02:21:51;;;;;;;3.70;0.43;;;16.20;99.90;;;;;;5018202;28;20799;-91
2023/08/03 02:24:18;;;;;;;0.80;0.50;;;16.30;99.90;;;;;;5018552;28;20463;-91
2023/08/03 02:26:45;;;;;;;5.03;1.17;;;16.20;99.90;;;;;;5018567;28;20830;-90
2023/08/03 02:29:11;;;;;;;0.50;0.40;;;16.20;99.90;;;;;;5018969;28;20451;-90
2023/08/03 02:31:39;;;;;;;1.80;0.40;;;16.20;99.90;;;;;;5018102;28;20447;-90
2023/08/03 02:34:06;;;;;;;0.40;0.40;;;16.30;99.90;;;;;;5017770;28;20471;-90
2023/08/03 02:36:33;;;;;;;0.93;0.60;;;16.20;99.90;;;;;;5018816;28;20768;-91
2023/08/03 02:39:00;;;;;;;1.50;0.63;;;16.20;99.90;;;;;;5017662;28;20933;-90
2023/08/03 02:41:26;;;;;;;2.03;1.83;;;16.20;99.90;;;;;;5018162;28;20444;-89
2023/08/03 02:43:53;;;;;;;1.27;0.43;;;16.20;99.90;;;;;;5017829;28;20463;-90
2023/08/03 02:46:20;;;;;;;5.73;0.93;;;16.20;99.90;;;;;;5017448;28;20963;-90
2023/08/03 02:48:48;;;;;;;0.80;0.50;;;16.10;99.90;;;;;;5017511;28;21036;-90
2023/08/03 02:51:14;;;;;;;0.40;0.40;;;16.10;99.90;;;;;;5017575;28;20941;-90
2023/08/03 02:53:41;;;;;;;1.37;0.43;;;16.10;99.90;;;;;;5017797;28;20475;-91
2023/08/03 02:56:08;;;;;;;1.77;0.53;;;16.10;99.90;;;;;;5017609;28;20440;-91
2023/08/03 02:58:35;;;;;;;1.90;0.50;;;16.10;99.90;;;;;;5017665;28;20439;-90
2023/08/03 03:01:02;;;;;;;0.53;0.50;;;16.10;99.90;;;;;;5017568;28;20462;-90
2023/08/03 03:03:29;;;;;;;0.93;0.33;;;16.20;99.90;;;;;;5017369;28;20479;-91
2023/08/03 03:05:57;;;;;;;0.93;0.50;;;16.10;99.90;;;;;;5017170;28;20442;-90
2023/08/03 03:08:24;;;;;;;1.80;0.60;;;16.10;99.90;;;;;;5017477;28;20491;-90
2023/08/03 03:10:51;;;;;;;0.90;0.47;;;16.10;99.90;;;;;;5017458;28;20435;-88
2023/08/03 03:13:17;;;;;;;0.70;0.70;;;16.10;99.90;;;;;;5017443;28;20447;-91
2023/08/03 03:15:44;;;;;;;8.13;0.80;;;16.10;99.90;;;;;;5017272;28;20458;-90
2023/08/03 03:18:11;;;;;;;3.03;0.43;;;16.10;99.90;;;;;;5017337;28;20448;-92
2023/08/03 03:20:37;;;;;;;2.10;0.50;;;16.10;99.90;;;;;;5016907;28;20962;-92
2023/08/03 03:23:06;;;;;;;4.80;0.93;;;16.00;99.90;;;;;;5017023;28;20451;-90
2023/08/03 03:25:32;;;;;;;2.23;0.60;;;16.00;99.90;;;;;;5016720;28;20959;-91
2023/08/03 03:28:04;;;;;;;1.73;0.40;;;16.00;99.90;;;;;;5016774;28;20508;-90
2023/08/03 03:30:30;;;;;;;2.20;0.73;;;16.00;99.90;;;;;;5016990;28;20432;-89
2023/08/03 03:32:57;;;;;;;0.50;0.40;;;16.00;99.90;;;;;;5017409;28;20439;-90
2023/08/03 03:35:24;;;;;;;3.90;1.33;;;16.00;99.90;;;;;;5016219;28;20483;-90
2023/08/03 03:37:51;;;;;;;7.20;0.50;;;16.00;99.90;;;;;;5016701;28;20447;-91
2023/08/03 03:40:19;;;;;;;1.70;0.43;;;15.90;99.90;;;;;;5016658;28;20443;-90
2023/08/03 03:42:46;;;;;;;3.03;0.70;;;15.90;99.90;;;;;;5016082;28;20941;-90
2023/08/03 03:45:12;;;;;;;1.23;0.50;;;15.90;99.90;;;;;;5016524;28;20478;-90
2023/08/03 03:47:39;;;;;;;0.70;0.40;;;15.80;99.90;;;;;;5016492;28;20486;-87
2023/08/03 03:50:06;;;;;;;0.40;0.40;;;15.70;99.90;;;;;;5016353;28;20801;-89
2023/08/03 03:52:33;;;;;;;4.47;0.40;;;15.70;99.90;;;;;;5016395;28;20451;-90
2023/08/03 03:55:00;;;;;;;2.30;0.50;;;15.70;99.90;;;;;;5016089;28;20475;-90
2023/08/03 03:57:28;;;;;;;0.83;0.50;;;15.70;99.90;;;;;;5015921;28;20440;-90
2023/08/03 03:59:55;;;;;;;4.30;0.40;;;15.70;99.90;;;;;;5016115;28;20442;-89
2023/08/03 04:02:21;;;;;;;3.03;0.40;;;15.70;99.90;;;;;;5015771;28;20432;-89
2023/08/03 04:04:48;;;;;;;5.70;0.50;;;15.80;99.90;;;;;;5015986;28;20463;-89
2023/08/03 04:07:15;;;;;;;2.53;0.77;;;15.70;99.90;;;;;;5016022;28;21010;-90
2023/08/03 04:09:42;;;;;;;0.40;0.30;;;15.80;99.90;;;;;;5015837;28;20448;-90
2023/08/03 04:12:09;;;;;;;2.67;0.50;;;15.80;99.90;;;;;;5015716;28;20458;-90
2023/08/03 04:14:37;;;;;;;1.07;0.40;;;15.70;99.90;;;;;;5015812;28;20460;-90
2023/08/03 04:17:04;;;;;;;3.27;0.40;;;15.70;99.90;;;;;;5016056;28;20443;-90
2023/08/03 04:19:31;;;;;;;2.03;0.37;;;15.70;99.90;;;;;;5015521;28;20436;-90
2023/08/03 04:21:57;;;;;;;1.80;0.30;;;15.70;99.90;;;;;;5015176;28;20964;-90
2023/08/03 04:24:24;;;;;;;0.50;0.50;;;15.70;99.90;;;;;;5015736;28;20465;-88
2023/08/03 04:26:51;;;;;;;0.40;0.30;;;15.70;99.90;;;;;;5015514;28;20450;-89
2023/08/03 04:29:17;;;;;;;0.30;0.30;;;15.70;99.90;;;;;;5015431;28;20444;-90
2023/08/03 04:31:53;;;;;;;0.40;0.30;;;15.80;99.90;;;;;;5015255;28;20906;-89
2023/08/03 04:34:19;;;;;;;0.40;0.30;;;15.80;99.90;;;;;;5015215;28;20474;-89
2023/08/03 04:36:47;;;;;;;0.53;0.40;;;15.70;99.90;;;;;;5015363;28;20427;-89
2023/08/03 04:39:14;;;;;;;0.40;0.30;;;15.70;99.90;;;;;;5015599;28;20447;-89
2023/08/03 04:41:41;;;;;;;0.43;0.30;;;15.70;99.90;;;;;;5015528;28;20443;-88
2023/08/03 04:44:07;;;;;;;0.40;0.30;;;15.70;99.90;;;;;;5015274;28;20964;-89
2023/08/03 04:46:34;;;;;;;0.30;0.30;;;15.70;99.90;;;;;;5015062;28;20538;-89
2023/08/03 04:49:03;;;;;;;0.30;0.30;;;15.70;99.90;;;;;;5015362;28;20859;-90
2023/08/03 04:51:30;;;;;;;2.00;0.40;;;15.80;99.90;;;;;;5015274;28;20460;-90
2023/08/03 04:53:56;;;;;;;0.30;0.30;;;15.80;99.90;;;;;;5015122;28;20468;-90
2023/08/03 04:56:23;;;;;;;0.30;0.30;;;15.80;99.90;;;;;;5015388;28;20443;-89
2023/08/03 04:58:50;;;;;;;3.20;0.60;;;15.80;99.90;;;;;;5015148;28;20444;-89
2023/08/03 05:01:16;;;;;;;2.43;0.57;;;15.80;99.90;;;;;;5014996;28;20440;-90
2023/08/03 05:03:43;;;;;;;1.00;0.50;;;15.80;99.90;;;;;;5015103;28;20558;-89
2023/08/03 05:06:11;;;;;;;3.70;0.50;;;15.80;99.90;;;;;;5015071;28;20455;-90
2023/08/03 05:08:38;;;;;;;0.60;0.30;;;15.90;99.90;;;;;;5014876;28;20500;-90
2023/08/03 05:11:05;;;;;;;0.50;0.30;;;15.90;99.90;;;;;;5015032;28;20444;-90
2023/08/03 05:13:31;;;;;;;1.77;0.33;;;16.00;99.90;;;;;;5014905;28;20479;-89
2023/08/03 05:15:58;;;;;;;0.37;0.30;;;16.00;99.90;;;;;;5014808;28;20458;-89
2023/08/03 05:18:25;;;;;;;0.40;0.30;;;16.00;99.90;;;;;;5014850;28;20491;-91
2023/08/03 05:20:52;;;;;;;8.60;0.67;;;16.00;99.90;;;;;;5014506;28;20439;-89
2023/08/03 05:23:20;;;;;;;1.27;0.30;;;16.00;99.90;;;;;;5014758;28;20451;-89
2023/08/03 05:25:48;;;;;;;2.67;0.40;;;15.90;99.90;;;;;;5014695;28;20996;-90
2023/08/03 05:28:14;;;;;;;5.23;0.40;;;15.90;99.90;;;;;;5014408;28;20478;-89
2023/08/03 05:30:44;;;;;;;1.90;0.40;;;15.90;99.90;;;;;;5014325;28;20455;-90
2023/08/03 05:33:11;;;;;;;0.40;0.30;;;15.90;99.90;;;;;;5014352;28;20458;-89
2023/08/03 05:35:38;;;;;;;0.40;0.40;;;15.90;99.90;;;;;;5013674;28;20480;-89
2023/08/03 05:38:05;;;;;;;2.63;0.70;;;15.90;99.90;;;;;;5014398;28;20804;-89
2023/08/03 05:40:33;;;;;;;0.40;0.40;;;15.80;99.90;;;;;;5014444;28;20458;-89
2023/08/03 05:42:59;;;;;;;0.50;0.37;;;15.90;99.90;;;;;;5014498;28;20450;-89
2023/08/03 05:45:38;;;;;;;1.07;0.40;;;15.90;99.90;;;;;;5014654;28;20475;-89
2023/08/03 05:48:13;;;;;;;0.70;0.40;;;16.00;99.90;;;;;;5014631;28;20884;-89
2023/08/03 05:50:42;;;;;;;0.67;0.40;;;16.10;99.90;;;;;;5014447;28;20431;-90
2023/08/03 05:53:09;;;;;;;0.30;0.30;;;16.10;99.90;;;;;;5014519;28;20818;-90
2023/08/03 05:55:38;;;;;;;0.40;0.30;;;16.10;99.90;;;;;;5014308;28;20434;-89
2023/08/03 05:58:05;;;;;;;0.70;0.40;;;16.10;99.90;;;;;;5014224;28;20450;-90
2023/08/03 06:00:32;;;;;;;2.30;0.40;;;16.20;99.90;;;;;;5014460;28;20447;-90
2023/08/03 06:03:00;;;;;;;1.23;0.50;;;16.30;99.90;;;;;;5014544;28;20448;-89
2023/08/03 06:05:41;;;;;;;3.23;0.50;;;16.40;99.90;;;;;;5014225;28;20819;-90
2023/08/03 06:08:13;;;;;;;0.97;0.40;;;16.50;99.90;;;;;;5014340;28;20479;-90
2023/08/03 06:10:53;;;;;;;1.90;0.50;;;16.50;99.90;;;;;;5014234;28;20408;-89
2023/08/03 06:13:26;;;;;;;0.70;0.50;;;16.70;99.90;;;;;;5014494;28;20455;-89
2023/08/03 06:15:53;;;;;;;2.30;0.40;;;16.70;99.90;;;;;;5013862;28;20936;-89
2023/08/03 06:18:22;;;;;;;0.37;0.30;;;16.80;99.90;;;;;;5014348;28;20443;-89
2023/08/03 06:20:50;;;;;;;1.00;0.50;;;16.90;99.90;;;;;;5014240;28;20447;-90
2023/08/03 06:23:18;;;;;;;0.80;0.50;;;17.10;99.90;;;;;;5013812;28;20446;-89
2023/08/03 06:25:46;;;;;;;1.67;0.50;;;17.20;99.90;;;;;;5013943;28;20443;-90
2023/08/03 06:28:16;;;;;;;1.70;0.40;;;17.40;99.90;;;;;;5013881;28;20489;-89
2023/08/03 06:30:43;;;;;;;0.50;0.40;;;17.50;99.90;;;;;;5014182;28;20432;-88
2023/08/03 06:33:14;;;;;;;0.30;0.30;;;17.70;99.90;;;;;;5013960;28;20782;-92
2023/08/03 06:35:41;;;;;;;0.40;0.40;;;17.80;99.90;;;;;;5013572;28;21027;-90
2023/08/03 06:38:10;;;;;;;0.50;0.37;;;17.70;99.90;;;;;;5013764;28;20444;-91
2023/08/03 06:40:39;;;;;;;0.40;0.20;;;17.80;99.90;;;;;;5013986;28;20497;-90
2023/08/03 06:43:06;;;;;;;4.30;0.50;;;17.80;99.90;;;;;;5013807;28;20448;-91
2023/08/03 06:45:35;;;;;;;0.50;0.33;;;17.80;99.90;;;;;;5014745;28;20944;-91
2023/08/03 06:48:03;;;;;;;1.20;0.40;;;17.90;99.90;;;;;;5017573;28;20494;-90
2023/08/03 06:50:31;;;;;;;0.60;0.40;;;18.00;99.90;;;;;;5017510;28;20451;-89
2023/08/03 06:52:58;;;;;;;0.50;0.30;;;18.10;99.90;;;;;;5017528;28;20444;-90
2023/08/03 06:55:25;;;;;;;0.70;0.40;;;18.30;99.90;;;;;;5016855;28;20984;-89
2023/08/03 06:57:53;;;;;;;0.30;0.30;;;18.40;99.90;;;;;;5017104;28;20439;-90
2023/08/03 07:00:20;;;;;;;0.83;0.40;;;18.50;99.90;;;;;;5017202;28;20451;-90
2023/08/03 07:02:50;;;;;;;0.50;0.30;;;18.50;99.90;;;;;;5017183;28;20807;-90
2023/08/03 07:05:17;;;;;;;2.00;0.40;;;18.60;99.90;;;;;;5017677;28;20995;-91
2023/08/03 07:07:44;;;;;;;0.70;0.40;;;18.60;99.90;;;;;;5017492;28;20443;-93
2023/08/03 07:10:11;;;;;;;0.40;0.40;;;18.70;99.90;;;;;;5017578;28;20447;-92
2023/08/03 07:12:52;;;;;;;1.47;0.50;;;18.70;99.90;;;;;;5017740;28;20448;-90
2023/08/03 07:15:33;;;;;;;0.40;0.30;;;18.90;99.90;;;;;;5017497;28;20550;-92
2023/08/03 07:18:03;;;;;;;0.40;0.30;;;19.00;99.90;;;;;;5017991;28;20424;-92
2023/08/03 07:20:29;;;;;;;1.13;0.50;;;19.00;99.90;;;;;;5017666;28;20467;-91
2023/08/03 07:22:56;;;;;;;0.30;0.30;;;19.10;99.90;;;;;;5017756;28;20452;-90
2023/08/03 07:25:24;;;;;;;1.73;0.47;;;19.20;99.90;;;;;;5017301;28;20460;-92
2023/08/03 07:27:51;;;;;;;1.40;0.50;;;19.30;99.90;;;;;;5017513;28;20458;-93
2023/08/03 07:30:18;;;;;;;0.60;0.40;;;19.60;99.90;;;;;;5017714;28;20443;-91
2023/08/03 07:32:45;;;;;;;2.00;0.60;;;19.60;99.90;;;;;;5017099;28;20446;-91
2023/08/03 07:35:13;;;;;;;1.33;0.30;;;19.80;99.90;;;;;;5017231;28;20477;-93
2023/08/03 07:37:40;;;;;;;1.90;0.40;;;19.80;99.90;;;;;;5017188;28;20455;-91
2023/08/03 07:40:08;;;;;;;0.50;0.30;;;20.00;99.90;;;;;;5017109;28;20443;-91
2023/08/03 07:42:35;;;;;;;1.47;0.60;;;20.00;99.90;;;;;;5017195;28;20443;-91
2023/08/03 07:45:02;;;;;;;0.40;0.40;;;20.10;99.90;;;;;;5016479;28;20478;-88
2023/08/03 07:47:30;;;;;;;0.50;0.40;;;20.20;99.90;;;;;;5017515;28;20455;-92
2023/08/03 07:49:57;;;;;;;0.63;0.50;;;20.10;99.90;;;;;;5016763;28;21017;-91
2023/08/03 07:52:25;;;;;;;1.40;0.30;;;20.20;99.90;;;;;;5016549;28;20443;-91
2023/08/03 07:54:54;;;;;;;0.90;0.43;;;20.30;99.90;;;;;;5016444;28;20463;-90
2023/08/03 07:57:21;;;;;;;0.70;0.60;;;20.50;99.90;;;;;;5015921;28;20448;-91
2023/08/03 07:59:51;;;;;;;0.87;0.40;;;20.50;99.90;;;;;;5016860;28;20447;-90
2023/08/03 08:02:18;;;;;;;0.40;0.40;;;20.50;99.90;;;;;;5016459;28;20454;-90
2023/08/03 08:04:48;;;;;;;0.43;0.30;;;20.60;99.90;;;;;;5015889;28;20467;-90
2023/08/03 08:07:15;;;;;;;0.73;0.40;;;20.50;99.90;;;;;;5017063;28;20438;-91
2023/08/03 08:09:43;;;;;;;0.50;0.37;;;20.50;99.90;;;;;;5016499;28;20856;-91
2023/08/03 08:12:10;;;;;;;0.67;0.40;;;20.40;99.90;;;;;;5016536;28;20443;-91
2023/08/03 08:14:36;;;;;;;1.40;0.40;;;20.40;99.90;;;;;;5016028;28;20463;-93
2023/08/03 08:17:03;;;;;;;6.00;0.60;;;20.30;99.90;;;;;;5015950;28;20933;-91
2023/08/03 08:19:31;;;;;;;1.07;0.53;;;20.10;99.90;;;;;;5016166;28;20458;-92
2023/08/03 08:21:58;;;;;;;0.50;0.40;;;20.00;99.90;;;;;;5015958;28;20452;-89
2023/08/03 08:24:24;;;;;;;1.13;0.40;;;19.90;99.90;;;;;;5016087;28;20469;-90
2023/08/03 08:26:52;;;;;;;0.40;0.30;;;19.80;99.90;;;;;;5015870;28;20428;-90
2023/08/03 08:29:19;;;;;;;0.30;0.30;;;19.70;99.90;;;;;;5015709;28;21126;-90
2023/08/03 08:31:47;;;;;;;0.40;0.40;;;19.70;99.90;;;;;;5015753;28;20452;-91
2023/08/03 08:34:14;;;;;;;3.80;0.50;;;19.70;99.90;;;;;;5015365;28;20471;-92
2023/08/03 08:36:41;;;;;;;1.67;0.40;;;19.80;99.90;;;;;;5015568;28;20408;-90
2023/08/03 08:39:08;;;;;;;2.40;0.40;;;19.80;99.90;;;;;;5015676;28;20427;-89
2023/08/03 08:41:39;;;;;;;0.60;0.37;;;19.90;99.90;;;;;;5015616;28;20455;-88
2023/08/03 08:44:07;;;;;;;0.60;0.30;;;19.80;99.90;;;;;;5017161;28;20473;-89
2023/08/03 08:46:34;;;;;;;0.53;0.40;;;19.90;99.90;;;;;;5015356;28;20482;-90
2023/08/03 08:49:01;;;;;;;0.40;0.30;;;19.80;99.90;;;;;;5015313;28;20484;-90
2023/08/03 08:51:28;;;;;;;1.33;0.37;;;19.70;99.90;;;;;;5015086;28;20446;-90
2023/08/03 08:53:55;;;;;;;0.43;0.40;;;19.80;99.90;;;;;;5015303;28;20467;-90
2023/08/03 08:56:22;;;;;;;0.30;0.30;;;19.80;99.90;;;;;;5015679;28;20451;-90
2023/08/03 08:58:48;;;;;;;0.40;0.33;;;19.80;99.90;;;;;;5014925;28;20534;-90
2023/08/03 09:01:17;;;;;;;0.33;0.30;;;19.90;99.90;;;;;;5014746;28;20441;-89
2023/08/03 09:03:49;;;;;;;1.13;0.40;;;19.90;99.90;;;;;;5014805;28;20551;-89
2023/08/03 09:06:15;;;;;;;0.30;0.30;;;19.80;99.90;;;;;;5014503;28;20515;-91
2023/08/03 09:08:50;;;;;;;0.40;0.30;;;19.80;99.90;;;;;;5014280;28;20832;-91
2023/08/03 09:11:17;;;;;;;0.93;0.30;;;19.90;99.90;;;;;;5014594;28;20451;-92
2023/08/03 09:13:49;;;;;;;0.40;0.30;;;20.00;99.90;;;;;;5014767;28;20518;-90
2023/08/03 09:16:26;;;;;;;1.57;0.40;;;20.10;99.90;;;;;;5014881;28;20412;-90
2023/08/03 09:18:53;;;;;;;1.70;0.30;;;20.10;99.90;;;;;;5015145;28;20447;-89
2023/08/03 09:21:20;;;;;;;1.23;0.40;;;20.00;99.90;;;;;;5014627;28;20947;-90
2023/08/03 09:23:48;;;;;;;0.30;0.30;;;20.00;99.90;;;;;;5014655;28;20972;-90
2023/08/03 09:26:20;;;;;;;0.70;0.30;;;20.20;99.90;;;;;;5014903;28;20526;-93
2023/08/03 09:28:47;;;;;;;0.40;0.37;;;20.20;99.90;;;;;;5014774;28;20475;-90
2023/08/03 09:31:25;;;;;;;0.40;0.30;;;20.20;99.90;;;;;;5014558;28;20459;-89
2023/08/03 09:33:56;;;;;;;2.00;0.40;;;20.40;99.90;;;;;;5014897;28;20474;-90
2023/08/03 09:36:23;;;;;;;0.40;0.30;;;20.60;99.90;;;;;;5014279;28;20565;-93
2023/08/03 09:38:51;;;;;;;0.30;0.30;;;20.60;99.90;;;;;;5014696;28;20440;-92
2023/08/03 09:41:34;;;;;;;1.00;0.30;;;20.50;99.90;;;;;;5014769;28;20475;-92
2023/08/03 09:44:02;;;;;;;0.40;0.40;;;20.50;99.90;;;;;;5014826;28;20471;-91
2023/08/03 09:46:30;;;;;;;0.30;0.30;;;20.50;99.90;;;;;;5014445;28;20448;-91
2023/08/03 09:48:57;;;;;;;0.40;0.30;;;20.60;99.90;;;;;;5014242;28;20839;-84
2023/08/03 09:51:27;;;;;;;0.40;0.40;;;20.70;99.90;;;;;;5013700;28;20456;-90
2023/08/03 09:53:59;;;;;;;0.40;0.30;;;20.70;99.90;;;;;;5014363;28;20468;-91
2023/08/03 09:56:31;;;;;;;0.53;0.40;;;20.70;99.90;;;;;;5014505;28;20435;-89
2023/08/03 09:59:03;;;;;;;0.40;0.30;;;20.70;99.90;;;;;;5014519;28;20442;-87
2023/08/03 10:01:34;;;;;;;0.50;0.40;;;20.70;99.90;;;;;;5014603;28;20446;-90
2023/08/03 10:04:05;;;;;;;0.70;0.30;;;20.60;99.90;;;;;;5014402;28;20471;-89
2023/08/03 10:06:34;;;;;;;0.50;0.40;;;20.60;99.90;;;;;;5015452;28;20493;-88
2023/08/03 10:09:04;;;;;;;1.03;0.30;;;20.50;99.90;;;;;;5014419;28;20486;-92
2023/08/03 10:11:34;;;;;;;0.30;0.30;;;20.60;99.90;;;;;;5015071;28;20451;-92
2023/08/03 10:14:04;;;;;;;0.50;0.30;;;20.70;99.90;;;;;;5014281;28;20486;-90
2023/08/03 10:16:33;;;;;;;0.70;0.30;;;20.70;99.90;;;;;;5014637;28;20435;-92
2023/08/03 10:19:01;;;;;;;0.40;0.30;;;20.80;99.90;;;;;;5014687;28;20435;-90
2023/08/03 10:21:28;;;;;;;0.30;0.30;;;20.70;99.90;;;;;;5017101;28;20500;-92
2023/08/03 10:24:14;;;;;;;0.30;0.30;;;20.70;99.90;;;;;;5018116;28;20455;-91
2023/08/03 10:26:41;;;;;;;0.73;0.30;;;20.50;99.90;;;;;;5018613;28;20889;-93
2023/08/03 10:29:08;;;;;;;0.30;0.30;;;20.50;99.90;;;;;;5018611;28;20828;-91
2023/08/03 10:31:52;;;;;;;0.50;0.40;;;20.30;99.90;;;;;;5018219;28;20446;-92
2023/08/03 10:34:26;;;;;;;0.40;0.30;;;20.30;99.90;;;;;;5017994;28;20482;-93
2023/08/03 10:36:55;;;;;;;0.47;0.33;;;20.30;99.90;;;;;;5018341;28;20427;-93
2023/08/03 10:39:49;;;;;;;1.03;0.30;;;20.30;99.90;;;;;;5018973;28;20455;-92
2023/08/03 10:42:34;;;;;;;0.30;0.30;;;20.40;99.90;;;;;;5018242;28;20462;-91
2023/08/03 10:45:30;;;;;;;0.40;0.30;;;20.60;99.90;;;;;;5017933;28;20546;-92
2023/08/03 10:48:30;;;;;;;0.70;0.40;;;20.70;99.90;;;;;;5017890;28;20443;-88
2023/08/03 10:51:02;;;;;;;0.40;0.30;;;20.80;99.90;;;;;;5017859;28;20483;-93
2023/08/03 10:53:29;;;;;;;0.30;0.30;;;20.70;99.90;;;;;;5017794;28;20560;-91
2023/08/03 10:56:07;;;;;;;0.40;0.30;;;20.70;99.90;;;;;;5018502;28;20447;-92
2023/08/03 10:58:44;;;;;;;1.17;0.43;;;20.70;99.90;;;;;;5017571;28;20420;-91
2023/08/03 11:01:14;;;;;;;0.40;0.30;;;20.70;99.90;;;;;;5017543;28;20901;-94
2023/08/03 11:03:42;;;;;;;0.40;0.30;;;20.90;99.90;;;;;;5017778;28;20463;-92
2023/08/03 11:06:09;;;;;;;0.40;0.30;;;21.10;99.90;;;;;;5017771;28;20449;-92
2023/08/03 11:08:36;;;;;;;0.60;0.33;;;21.30;99.90;;;;;;5017279;28;20451;-93
2023/08/03 11:11:03;;;;;;;0.50;0.30;;;21.50;99.90;;;;;;5017504;28;20478;-92
2023/08/03 11:13:30;;;;;;;0.40;0.40;;;21.90;99.90;;;;;;5017328;28;20465;-92
2023/08/03 11:15:58;;;;;;;0.63;0.30;;;22.10;99.90;;;;;;5017436;28;20447;-92
2023/08/03 11:18:25;;;;;;;0.30;0.30;;;22.10;99.90;;;;;;5017376;28;20447;-92
2023/08/03 11:20:53;;;;;;;0.60;0.33;;;21.90;99.90;;;;;;5017035;28;20940;-92
2023/08/03 11:23:20;;;;;;;0.40;0.40;;;21.90;99.90;;;;;;5017213;28;20447;-93
2023/08/03 11:25:47;;;;;;;0.50;0.30;;;21.70;99.90;;;;;;5017075;28;20462;-91
2023/08/03 11:28:18;;;;;;;1.10;0.30;;;21.60;99.90;;;;;;5017181;28;20450;-94
2023/08/03 11:30:45;;;;;;;0.60;0.40;;;21.50;99.90;;;;;;5017004;28;20462;-93
2023/08/03 11:33:13;;;;;;;0.30;0.30;;;21.20;99.90;;;;;;5015613;28;20479;-93
2023/08/03 11:35:40;;;;;;;0.40;0.40;;;21.20;99.90;;;;;;5016738;28;20489;-89
2023/08/03 11:38:10;;;;;;;0.30;0.30;;;21.10;99.90;;;;;;5016911;28;20450;-92
2023/08/03 11:40:37;;;;;;;0.60;0.40;;;21.10;99.90;;;;;;5017226;28;20435;-94
2023/08/03 11:43:05;;;;;;;2.10;0.40;;;21.40;99.90;;;;;;5017020;28;20457;-92
2023/08/03 11:45:35;;;;;;;0.30;0.30;;;21.50;99.90;;;;;;5016928;28;20478;-89
2023/08/03 11:48:02;;;;;;;0.30;0.30;;;21.40;99.90;;;;;;5016187;28;20453;-89
2023/08/03 11:50:29;;;;;;;1.00;0.30;;;21.40;99.90;;;;;;5016520;28;20482;-91
2023/08/03 11:52:58;;;;;;;0.30;0.30;;;21.50;99.90;;;;;;5016618;28;20450;-91
2023/08/03 11:55:30;;;;;;;0.30;0.30;;;21.50;99.90;;;;;;5016614;28;20463;-89
2023/08/03 11:58:08;;;;;;;0.40;0.30;;;21.60;99.90;;;;;;5016997;28;20432;-91
2023/08/03 12:00:35;;;;;;;0.40;0.30;;;21.60;99.90;;;;;;5016570;28;20411;-91
2023/08/03 12:03:02;;;;;;;0.30;0.30;;;21.60;99.90;;;;;;5016589;28;20447;-91
2023/08/03 12:05:29;;;;;;;0.33;0.30;;;21.70;99.90;;;;;;5022388;28;20504;-91
2023/08/03 12:07:57;;;;;;;1.63;0.40;;;21.70;99.90;;;;;;5027689;28;20950;-91
2023/08/03 12:10:23;;;;;;;0.83;0.40;;;21.80;99.90;;;;;;5030018;28;20482;-90
2023/08/03 12:12:51;;;;;;;1.67;0.40;;;21.70;99.90;;;;;;5026505;28;20928;-83
2023/08/03 12:15:18;;;;;;;0.73;0.57;;;21.50;99.90;;;;;;5026128;28;20467;-88
2023/08/03 12:17:45;;;;;;;0.40;0.37;;;21.30;99.90;;;;;;5027803;28;20445;-90
2023/08/03 12:20:12;;;;;;;2.73;0.47;;;21.00;99.90;;;;;;5032112;28;20428;-90
2023/08/03 12:22:39;;;;;;;0.30;0.30;;;20.50;99.90;;;;;;5024554;28;20461;-88
2023/08/03 12:25:06;;;;;;;0.40;0.40;;;19.90;99.90;;;;;;5018293;28;20447;-89
2023/08/03 12:27:33;;;;;;;1.90;0.33;;;19.50;99.90;;;;;;5016228;28;20905;-90
2023/08/03 12:30:01;;;;;;;0.30;0.30;;;19.30;99.90;;;;;;5017077;28;20463;-89
2023/08/03 12:32:27;;;;;;;1.50;0.30;;;19.30;99.90;;;;;;5016930;28;20456;-88
2023/08/03 12:34:54;;;;;;;1.27;0.50;;;19.20;99.90;;;;;;5015110;28;20483;-91
2023/08/03 12:37:21;;;;;;;1.53;0.40;;;19.30;99.90;;;;;;5016126;28;20451;-90
2023/08/03 12:39:48;;;;;;;0.30;0.30;;;19.40;99.90;;;;;;5015761;28;20448;-89
2023/08/03 12:42:14;;;;;;;0.40;0.40;;;19.50;99.90;;;;;;5015584;28;20455;-91
2023/08/03 12:44:41;;;;;;;2.70;0.50;;;19.60;99.90;;;;;;5015224;28;20471;-92
2023/08/03 12:47:09;;;;;;;0.50;0.30;;;19.70;99.90;;;;;;5016174;28;20482;-92
2023/08/03 12:49:36;;;;;;;0.50;0.40;;;19.50;99.90;;;;;;5015513;28;20436;-91
2023/08/03 12:52:03;;;;;;;0.40;0.40;;;19.30;99.90;;;;;;5015439;28;20440;-89
2023/08/03 12:54:30;;;;;;;0.40;0.30;;;19.20;99.90;;;;;;5015098;28;20558;-90